Time;durP1;ratioP1;P1;durP2;ratioP2;P2;SDS_P1;SDS_P2;PMS_P1;PMS_P2;Temp;Humidity;BMP_temperature;BMP_pressure;BME280_temperature;BME280_humidity;BME280_pressure;Samples;Min_cycle;Max_cycle;Signal;HPM_P1;HPM_P2
2022/11/28 00:01:22;;;;;;;9.15;3.80;;;6.50;99.90;;;;;;5063172;28;20068;-38
2022/11/28 00:03:47;;;;;;;10.70;4.40;;;6.50;99.90;;;;;;5064093;28;20521;-38
2022/11/28 00:06:13;;;;;;;8.00;4.00;;;6.50;99.90;;;;;;5060830;28;20041;-40
2022/11/28 00:08:39;;;;;;;7.95;3.80;;;6.50;99.90;;;;;;5060604;28;20033;-38
2022/11/28 00:11:07;;;;;;;9.07;4.07;;;6.50;99.90;;;;;;5061826;28;20120;-40
2022/11/28 00:13:34;;;;;;;7.30;3.47;;;6.50;99.90;;;;;;5059996;28;20036;-38
2022/11/28 00:16:01;;;;;;;9.13;4.53;;;6.50;99.90;;;;;;5064719;28;20075;-38
2022/11/28 00:18:28;;;;;;;9.85;4.13;;;6.50;99.90;;;;;;5062928;28;20040;-39
2022/11/28 00:21:01;;;;;;;8.00;3.90;;;6.50;99.90;;;;;;5064008;28;20040;-38
2022/11/28 00:23:27;;;;;;;7.63;3.67;;;6.50;99.90;;;;;;5057852;28;20493;-37
2022/11/28 00:26:09;;;;;;;8.00;3.58;;;6.50;99.90;;;;;;5064073;28;20041;-38
2022/11/28 00:28:35;;;;;;;9.95;4.07;;;6.50;99.90;;;;;;5062558;28;20045;-37
2022/11/28 00:31:03;;;;;;;8.20;4.30;;;6.50;99.90;;;;;;5066856;28;20071;-38
2022/11/28 00:33:30;;;;;;;7.05;3.95;;;6.50;99.90;;;;;;5064901;28;20401;-38
2022/11/28 00:36:03;;;;;;;7.07;3.97;;;6.50;99.90;;;;;;5055737;28;20045;-39
2022/11/28 00:38:30;;;;;;;7.03;3.08;;;6.50;99.90;;;;;;5061296;28;20104;-38
2022/11/28 00:40:59;;;;;;;7.50;4.10;;;6.50;99.90;;;;;;5064299;28;20041;-38
2022/11/28 00:43:25;;;;;;;7.07;3.20;;;6.60;99.90;;;;;;5066539;28;20116;-38
2022/11/28 00:45:51;;;;;;;7.20;4.07;;;6.60;99.90;;;;;;5066621;28;20123;-38
2022/11/28 00:48:17;;;;;;;10.35;4.10;;;6.50;99.90;;;;;;5062141;28;20066;-38
2022/11/28 00:50:42;;;;;;;10.55;4.30;;;6.60;99.90;;;;;;5064746;28;20120;-38
2022/11/28 00:53:08;;;;;;;11.18;4.30;;;6.60;99.90;;;;;;5058956;28;20033;-38
2022/11/28 00:55:37;;;;;;;8.07;4.80;;;6.60;99.90;;;;;;5062219;28;20076;-38
2022/11/28 00:58:02;;;;;;;7.88;4.15;;;6.60;99.90;;;;;;5059612;28;20036;-38
2022/11/28 01:00:28;;;;;;;8.25;4.18;;;6.70;99.90;;;;;;5061604;28;20025;-37
2022/11/28 01:02:54;;;;;;;9.35;4.38;;;6.60;99.90;;;;;;5061092;28;20037;-38
2022/11/28 01:05:19;;;;;;;8.07;3.97;;;6.70;99.90;;;;;;5064726;28;20124;-37
2022/11/28 01:07:45;;;;;;;10.82;4.28;;;6.70;99.90;;;;;;5058827;28;20504;-39
2022/11/28 01:10:11;;;;;;;9.15;4.90;;;6.70;99.90;;;;;;5065488;28;20040;-38
2022/11/28 01:12:36;;;;;;;9.65;4.20;;;6.70;99.90;;;;;;5064063;28;20443;-39
2022/11/28 01:15:04;;;;;;;9.20;4.50;;;6.70;99.90;;;;;;5063033;28;20470;-38
2022/11/28 01:17:29;;;;;;;6.78;3.35;;;6.70;99.90;;;;;;5060647;28;20041;-37
2022/11/28 01:19:55;;;;;;;8.07;4.57;;;6.70;99.90;;;;;;5064633;28;20043;-38
2022/11/28 01:22:21;;;;;;;8.25;4.85;;;6.70;99.90;;;;;;5066741;28;20109;-39
2022/11/28 01:24:46;;;;;;;8.82;4.93;;;6.70;99.90;;;;;;5060356;28;20183;-38
2022/11/28 01:27:12;;;;;;;8.88;4.63;;;6.70;99.90;;;;;;5059468;28;20040;-39
2022/11/28 01:29:37;;;;;;;11.68;4.60;;;6.70;99.90;;;;;;5058439;28;20068;-39
2022/11/28 01:32:03;;;;;;;11.70;4.78;;;6.70;99.90;;;;;;5063078;28;20032;-38
2022/11/28 01:34:29;;;;;;;9.38;4.75;;;6.70;99.90;;;;;;5063168;28;20098;-39
2022/11/28 01:36:54;;;;;;;11.75;4.78;;;6.60;99.90;;;;;;5060630;28;20045;-38
2022/11/28 01:39:20;;;;;;;8.68;4.30;;;6.70;99.90;;;;;;5060996;28;20036;-38
2022/11/28 01:41:46;;;;;;;8.75;4.55;;;6.70;99.90;;;;;;5062880;28;20447;-38
2022/11/28 01:44:14;;;;;;;11.07;4.82;;;6.70;99.90;;;;;;5058698;28;20064;-38
2022/11/28 01:46:40;;;;;;;7.75;4.13;;;6.70;99.90;;;;;;5061499;28;20542;-38
2022/11/28 01:49:16;;;;;;;8.32;4.38;;;6.70;99.90;;;;;;5061173;28;20043;-38
2022/11/28 01:51:52;;;;;;;8.57;4.20;;;6.70;99.90;;;;;;5063159;28;20033;-37
2022/11/28 01:54:20;;;;;;;7.22;3.72;;;6.70;99.90;;;;;;5059486;28;20539;-38
2022/11/28 01:57:00;;;;;;;9.85;3.88;;;6.70;99.90;;;;;;5061547;28;20094;-38
2022/11/28 01:59:32;;;;;;;10.05;4.75;;;6.80;99.90;;;;;;5057398;28;20045;-39
2022/11/28 02:01:58;;;;;;;11.68;4.50;;;6.80;99.90;;;;;;5062866;28;20044;-37
2022/11/28 02:04:26;;;;;;;8.13;4.20;;;6.80;99.90;;;;;;5065378;28;20044;-39
2022/11/28 02:06:53;;;;;;;7.63;4.20;;;6.80;99.90;;;;;;5057273;28;20535;-38
2022/11/28 02:09:19;;;;;;;8.88;5.20;;;6.80;99.90;;;;;;5058285;28;20072;-38
2022/11/28 02:11:53;;;;;;;10.40;5.28;;;6.90;99.90;;;;;;5062786;28;20485;-38
2022/11/28 02:14:31;;;;;;;10.75;5.22;;;6.80;99.90;;;;;;5062635;28;20047;-38
2022/11/28 02:17:18;;;;;;;10.13;5.25;;;6.80;99.90;;;;;;5064795;28;20436;-38
2022/11/28 02:20:02;;;;;;;10.77;5.10;;;6.80;99.90;;;;;;5064205;28;20488;-38
2022/11/28 02:22:34;;;;;;;7.75;4.82;;;6.80;99.90;;;;;;5069645;28;20052;-37
2022/11/28 02:25:25;;;;;;;12.88;6.03;;;6.80;99.90;;;;;;5064174;28;20544;-38
2022/11/28 02:28:02;;;;;;;8.43;5.20;;;6.80;99.90;;;;;;5063101;28;20106;-38
2022/11/28 02:31:06;;;;;;;10.27;5.30;;;6.80;99.90;;;;;;5062092;28;20052;-38
2022/11/28 02:33:37;;;;;;;10.55;5.68;;;6.80;99.90;;;;;;5065403;28;20033;-38
2022/11/28 02:36:11;;;;;;;13.07;5.88;;;6.80;99.90;;;;;;5040938;28;20056;-37
2022/11/28 02:39:08;;;;;;;9.63;5.45;;;6.80;99.90;;;;;;5048505;28;20045;-37
2022/11/28 02:41:51;;;;;;;12.85;5.88;;;6.80;99.90;;;;;;5037074;28;20048;-38
2022/11/28 02:44:22;;;;;;;12.73;5.53;;;6.80;99.90;;;;;;5048304;28;20045;-38
2022/11/28 02:47:26;;;;;;;10.52;6.00;;;6.90;99.90;;;;;;5034522;28;20086;-38
2022/11/28 02:50:07;;;;;;;11.95;6.20;;;6.90;99.90;;;;;;4985069;28;20038;-38
2022/11/28 02:52:41;;;;;;;10.70;5.00;;;6.90;99.90;;;;;;5042269;28;20136;-39
2022/11/28 02:55:07;;;;;;;10.82;6.30;;;6.90;99.90;;;;;;5039035;28;20037;-39
2022/11/28 02:57:38;;;;;;;11.25;5.85;;;6.90;99.90;;;;;;5039648;28;20103;-37
2022/11/28 03:00:24;;;;;;;11.60;6.47;;;6.90;99.90;;;;;;5043256;28;20375;-38
2022/11/28 03:03:24;;;;;;;12.80;6.30;;;7.00;99.90;;;;;;5034349;28;20052;-37
2022/11/28 03:06:19;;;;;;;13.35;6.53;;;7.00;99.90;;;;;;5046149;28;20044;-40
2022/11/28 03:09:06;;;;;;;13.13;6.75;;;7.00;99.90;;;;;;5038543;28;20045;-42
2022/11/28 03:11:53;;;;;;;11.43;5.60;;;7.00;99.90;;;;;;5038471;28;20056;-38
2022/11/28 03:14:47;;;;;;;12.13;6.15;;;7.10;99.90;;;;;;5040870;28;20040;-37
2022/11/28 03:17:43;;;;;;;14.25;6.07;;;7.00;99.90;;;;;;5036859;28;20045;-38
2022/11/28 03:20:14;;;;;;;14.20;5.93;;;7.00;99.90;;;;;;5042737;28;20083;-38
2022/11/28 03:22:55;;;;;;;13.55;6.10;;;7.10;99.90;;;;;;5042853;28;20515;-38
2022/11/28 03:25:23;;;;;;;11.80;5.95;;;7.10;99.90;;;;;;5045830;28;20487;-38
2022/11/28 03:28:05;;;;;;;13.00;6.13;;;7.10;99.90;;;;;;5034964;28;20081;-38
2022/11/28 03:31:03;;;;;;;11.40;5.78;;;7.10;99.90;;;;;;5046845;28;20517;-38
2022/11/28 03:33:33;;;;;;;11.18;4.72;;;7.20;99.90;;;;;;5046012;28;20045;-37
2022/11/28 03:36:13;;;;;;;15.35;6.45;;;7.20;99.90;;;;;;5038938;28;20052;-38
2022/11/28 03:38:47;;;;;;;12.07;6.70;;;7.20;99.90;;;;;;5039341;28;20052;-38
2022/11/28 03:41:26;;;;;;;10.90;5.93;;;7.20;99.90;;;;;;5037042;28;20037;-38
2022/11/28 03:43:55;;;;;;;12.02;6.13;;;7.20;99.90;;;;;;5052512;28;20045;-37
2022/11/28 03:46:25;;;;;;;12.07;6.15;;;7.20;99.90;;;;;;5035343;28;20045;-38
2022/11/28 03:48:56;;;;;;;10.27;5.55;;;7.20;99.90;;;;;;5039520;28;20120;-37
2022/11/28 03:51:32;;;;;;;11.93;6.35;;;7.20;99.90;;;;;;5042329;28;20037;-38
2022/11/28 03:54:20;;;;;;;10.27;5.85;;;7.20;99.90;;;;;;5040909;28;20087;-38
2022/11/28 03:56:56;;;;;;;11.88;6.30;;;7.20;99.90;;;;;;5035789;28;20494;-37
2022/11/28 03:59:24;;;;;;;13.98;6.30;;;7.20;99.90;;;;;;5040581;28;20041;-38
2022/11/28 04:02:34;;;;;;;9.38;5.38;;;7.20;99.90;;;;;;5035657;28;20067;-38
2022/11/28 04:05:22;;;;;;;10.25;5.70;;;7.20;99.90;;;;;;5036335;28;20146;-38
2022/11/28 04:07:57;;;;;;;11.82;6.13;;;7.20;99.90;;;;;;5035963;28;20037;-37
2022/11/28 04:10:31;;;;;;;9.45;5.97;;;7.20;99.90;;;;;;5039313;28;20118;-38
2022/11/28 04:13:21;;;;;;;10.23;5.45;;;7.20;99.90;;;;;;5038603;28;20048;-37
2022/11/28 04:16:11;;;;;;;11.80;6.32;;;7.30;99.90;;;;;;5035615;28;20042;-38
2022/11/28 04:18:45;;;;;;;10.60;5.70;;;7.30;99.90;;;;;;5033636;28;20034;-38
2022/11/28 04:21:33;;;;;;;13.57;5.72;;;7.30;99.90;;;;;;5036820;28;20084;-38
2022/11/28 04:24:03;;;;;;;11.75;6.10;;;7.30;99.90;;;;;;5023287;28;20498;-41
2022/11/28 04:26:54;;;;;;;15.02;6.25;;;7.30;99.90;;;;;;5040258;28;20045;-38
2022/11/28 04:29:22;;;;;;;10.10;5.70;;;7.30;99.90;;;;;;5034916;28;20057;-38
2022/11/28 04:31:52;;;;;;;12.52;6.13;;;7.30;99.90;;;;;;5034745;28;20038;-38
2022/11/28 04:34:20;;;;;;;15.63;5.68;;;7.30;99.90;;;;;;5044856;28;20053;-39
2022/11/28 04:36:48;;;;;;;12.20;5.80;;;7.40;99.90;;;;;;5060489;28;20080;-38
2022/11/28 04:39:18;;;;;;;11.15;5.53;;;7.40;99.90;;;;;;5059434;28;20430;-39
2022/11/28 04:42:08;;;;;;;11.38;5.68;;;7.40;99.90;;;;;;5054640;28;20080;-41
2022/11/28 04:44:44;;;;;;;8.63;5.20;;;7.40;99.90;;;;;;5044711;28;20059;-39
2022/11/28 04:47:10;;;;;;;9.38;5.50;;;7.40;99.90;;;;;;5058280;28;20060;-40
2022/11/28 04:49:37;;;;;;;9.82;5.68;;;7.40;99.90;;;;;;5057861;28;20098;-39
2022/11/28 04:52:14;;;;;;;11.38;6.63;;;7.40;99.90;;;;;;5056398;28;20128;-37
2022/11/28 04:55:08;;;;;;;11.05;6.25;;;7.40;99.90;;;;;;5059510;28;20075;-37
2022/11/28 04:58:10;;;;;;;10.00;5.47;;;7.40;99.90;;;;;;5061867;28;20044;-38
2022/11/28 05:00:37;;;;;;;11.32;6.22;;;7.40;99.90;;;;;;5047330;28;20502;-38
2022/11/28 05:03:04;;;;;;;9.60;4.88;;;7.40;99.90;;;;;;5061601;28;20038;-38
2022/11/28 05:05:30;;;;;;;10.52;6.50;;;7.40;99.90;;;;;;5062286;28;20072;-38
2022/11/28 05:07:57;;;;;;;10.48;6.63;;;7.40;99.90;;;;;;5061604;28;20455;-38
2022/11/28 05:10:23;;;;;;;11.60;6.20;;;7.40;99.90;;;;;;5061504;28;20157;-38
2022/11/28 05:12:49;;;;;;;11.38;6.30;;;7.40;99.90;;;;;;5059847;28;20111;-39
2022/11/28 05:15:18;;;;;;;9.30;5.47;;;7.40;99.90;;;;;;5064703;28;20165;-38
2022/11/28 05:17:45;;;;;;;10.35;5.78;;;7.40;99.90;;;;;;5066148;28;20127;-38
2022/11/28 05:20:11;;;;;;;10.63;5.75;;;7.40;99.90;;;;;;5065157;28;20075;-38
2022/11/28 05:22:37;;;;;;;11.95;5.90;;;7.40;99.90;;;;;;5061784;28;20072;-38
2022/11/28 05:25:03;;;;;;;9.70;5.85;;;7.50;99.90;;;;;;5058582;28;20045;-38
2022/11/28 05:27:28;;;;;;;10.45;4.90;;;7.40;99.90;;;;;;5059089;28;20075;-38
2022/11/28 05:29:54;;;;;;;11.45;5.82;;;7.40;99.90;;;;;;5062675;28;20532;-39
2022/11/28 05:32:20;;;;;;;10.80;5.70;;;7.50;99.90;;;;;;5055865;28;20064;-40
2022/11/28 05:34:45;;;;;;;9.13;5.22;;;7.50;99.90;;;;;;5059315;28;20530;-38
2022/11/28 05:37:11;;;;;;;11.10;5.75;;;7.50;99.90;;;;;;5063284;28;20055;-39
2022/11/28 05:39:37;;;;;;;9.70;5.50;;;7.50;99.90;;;;;;5058255;28;20060;-39
2022/11/28 05:42:03;;;;;;;9.02;4.85;;;7.50;99.90;;;;;;5060451;28;20036;-37
2022/11/28 05:44:28;;;;;;;9.93;4.95;;;7.50;99.90;;;;;;5062070;28;20036;-38
2022/11/28 05:46:54;;;;;;;9.20;4.65;;;7.50;99.90;;;;;;5067234;28;20448;-38
2022/11/28 05:49:20;;;;;;;12.32;4.78;;;7.60;99.90;;;;;;5060423;28;20477;-40
2022/11/28 05:51:47;;;;;;;8.18;4.68;;;7.60;99.90;;;;;;5065764;28;20115;-38
2022/11/28 05:54:13;;;;;;;8.75;4.50;;;7.60;99.90;;;;;;5067431;28;20037;-37
2022/11/28 05:56:39;;;;;;;6.22;3.85;;;7.60;99.90;;;;;;5069135;28;20111;-38
2022/11/28 05:59:04;;;;;;;9.23;4.93;;;7.60;99.90;;;;;;5070420;28;20124;-37
2022/11/28 06:01:30;;;;;;;10.32;4.72;;;7.60;99.90;;;;;;5072350;28;20043;-38
2022/11/28 06:03:59;;;;;;;8.98;4.43;;;7.60;99.90;;;;;;5065800;28;20384;-39
2022/11/28 06:06:31;;;;;;;9.82;4.82;;;7.60;99.90;;;;;;5058960;28;20502;-38
2022/11/28 06:08:57;;;;;;;9.52;4.07;;;7.60;99.90;;;;;;5067945;28;20047;-39
2022/11/28 06:11:26;;;;;;;7.60;3.80;;;7.60;99.90;;;;;;5067507;28;20132;-38
2022/11/28 06:13:52;;;;;;;7.05;3.42;;;7.60;99.90;;;;;;5068008;28;20029;-38
2022/11/28 06:16:24;;;;;;;8.77;5.30;;;7.60;99.90;;;;;;5085977;28;20057;-38
2022/11/28 06:18:58;;;;;;;8.77;5.28;;;7.60;99.90;;;;;;5069943;28;20093;-38
2022/11/28 06:21:25;;;;;;;9.23;5.53;;;7.60;99.90;;;;;;5067039;28;20044;-38
2022/11/28 06:23:51;;;;;;;9.00;5.20;;;7.60;99.90;;;;;;5068887;28;20746;-38
2022/11/28 06:26:19;;;;;;;8.93;5.05;;;7.60;99.90;;;;;;5063959;28;20029;-39
2022/11/28 06:28:46;;;;;;;8.35;4.97;;;7.60;99.90;;;;;;5063820;28;20048;-41
2022/11/28 06:31:14;;;;;;;9.75;5.00;;;7.60;99.90;;;;;;5063681;28;20094;-38
2022/11/28 06:33:40;;;;;;;7.72;4.68;;;7.60;99.90;;;;;;5065267;28;20040;-39
2022/11/28 06:36:07;;;;;;;9.60;5.15;;;7.60;99.90;;;;;;5043687;28;20044;-39
2022/11/28 06:38:33;;;;;;;9.90;5.40;;;7.60;99.90;;;;;;5044047;28;20033;-39
2022/11/28 06:41:02;;;;;;;11.23;5.40;;;7.60;99.90;;;;;;5037912;28;20072;-40
2022/11/28 06:43:29;;;;;;;8.43;5.22;;;7.60;99.90;;;;;;5046464;28;20044;-38
2022/11/28 06:45:56;;;;;;;8.98;5.35;;;7.60;99.90;;;;;;5048883;28;20132;-39
2022/11/28 06:48:22;;;;;;;9.40;5.45;;;7.60;99.90;;;;;;5043258;28;20143;-39
2022/11/28 06:50:47;;;;;;;11.15;5.65;;;7.60;99.90;;;;;;5049882;28;20064;-39
2022/11/28 06:53:13;;;;;;;10.75;5.55;;;7.60;99.90;;;;;;5045351;28;20088;-38
2022/11/28 06:55:39;;;;;;;7.63;4.47;;;7.60;99.90;;;;;;5039183;28;20044;-42
2022/11/28 06:58:05;;;;;;;8.52;5.20;;;7.60;99.90;;;;;;5039594;28;20582;-38
2022/11/28 07:00:31;;;;;;;10.32;5.85;;;7.60;99.90;;;;;;5038425;28;20086;-39
2022/11/28 07:02:57;;;;;;;10.85;5.68;;;7.60;99.90;;;;;;5043659;28;20140;-38
2022/11/28 07:05:26;;;;;;;10.05;5.70;;;7.60;99.90;;;;;;5040621;28;20206;-39
2022/11/28 07:07:56;;;;;;;10.45;5.55;;;7.60;99.90;;;;;;5040112;28;20041;-38
2022/11/28 07:10:22;;;;;;;8.65;4.60;;;7.60;99.90;;;;;;5040194;28;20033;-38
2022/11/28 07:12:53;;;;;;;8.73;5.55;;;7.60;99.90;;;;;;5038995;28;20503;-39
2022/11/28 07:15:19;;;;;;;11.40;5.93;;;7.60;99.90;;;;;;5039065;28;20040;-39
2022/11/28 07:17:44;;;;;;;9.93;5.40;;;7.60;99.90;;;;;;5035933;28;20498;-38
2022/11/28 07:20:11;;;;;;;10.52;5.43;;;7.60;99.90;;;;;;5041462;28;20644;-39
2022/11/28 07:22:37;;;;;;;10.27;5.25;;;7.60;99.90;;;;;;5053100;28;20045;-39
2022/11/28 07:25:02;;;;;;;9.77;5.65;;;7.60;99.90;;;;;;5037246;28;20045;-36
2022/11/28 07:27:28;;;;;;;9.75;5.60;;;7.60;99.90;;;;;;5039134;28;20072;-37
2022/11/28 07:29:54;;;;;;;10.82;5.75;;;7.60;99.90;;;;;;5045595;28;20037;-37
2022/11/28 07:32:19;;;;;;;11.13;6.32;;;7.60;99.90;;;;;;5036858;28;20063;-40
2022/11/28 07:34:46;;;;;;;11.63;6.03;;;7.60;99.90;;;;;;5050736;28;20834;-39
2022/11/28 07:37:12;;;;;;;8.88;5.43;;;7.60;99.90;;;;;;5042647;28;20044;-40
2022/11/28 07:39:37;;;;;;;9.27;5.18;;;7.50;99.90;;;;;;5044167;28;20414;-38
2022/11/28 07:42:03;;;;;;;9.52;5.40;;;7.60;99.90;;;;;;5038785;28;20037;-38
2022/11/28 07:44:29;;;;;;;9.20;4.38;;;7.60;99.90;;;;;;5047343;28;20040;-38
2022/11/28 07:46:55;;;;;;;8.57;4.57;;;7.60;99.90;;;;;;5040957;28;20132;-39
2022/11/28 07:49:20;;;;;;;9.60;4.65;;;7.60;99.90;;;;;;5040568;28;20412;-39
2022/11/28 07:51:46;;;;;;;8.63;5.00;;;7.60;99.90;;;;;;5042457;28;20041;-39
2022/11/28 07:54:12;;;;;;;10.40;5.15;;;7.60;99.90;;;;;;5041696;28;20030;-38
2022/11/28 07:56:38;;;;;;;13.63;5.63;;;7.60;99.90;;;;;;5037520;28;20033;-41
2022/11/28 07:59:04;;;;;;;8.90;5.13;;;7.60;99.90;;;;;;5038974;28;20041;-41
2022/11/28 08:01:34;;;;;;;6.93;4.43;;;7.60;99.90;;;;;;5040038;28;20078;-39
2022/11/28 08:04:02;;;;;;;9.18;5.07;;;7.60;99.90;;;;;;5048374;28;20525;-39
2022/11/28 08:06:29;;;;;;;8.48;4.90;;;7.60;99.90;;;;;;5045880;28;20045;-38
2022/11/28 08:08:58;;;;;;;8.88;4.45;;;7.60;99.90;;;;;;5051551;28;20041;-40
2022/11/28 08:11:27;;;;;;;7.95;4.43;;;7.60;99.90;;;;;;5038127;28;20674;-38
2022/11/28 08:13:52;;;;;;;8.73;4.38;;;7.60;99.90;;;;;;5044343;28;20072;-38
2022/11/28 08:16:20;;;;;;;7.65;4.35;;;7.70;99.90;;;;;;5017358;28;20056;-39
2022/11/28 08:18:47;;;;;;;7.32;4.05;;;7.60;99.90;;;;;;5027717;28;20065;-38
2022/11/28 08:21:25;;;;;;;8.98;4.72;;;7.60;99.90;;;;;;5043227;28;20033;-39
2022/11/28 08:23:52;;;;;;;9.10;4.50;;;7.70;99.90;;;;;;5041776;28;20068;-38
2022/11/28 08:26:21;;;;;;;7.35;3.97;;;7.70;99.90;;;;;;5043444;28;20111;-38
2022/11/28 08:28:47;;;;;;;7.63;3.97;;;7.70;99.90;;;;;;5039165;28;20046;-39
2022/11/28 08:31:18;;;;;;;7.32;4.40;;;7.70;99.90;;;;;;5041935;28;20557;-38
2022/11/28 08:33:45;;;;;;;6.93;4.13;;;7.70;99.90;;;;;;5034567;28;20554;-39
2022/11/28 08:36:13;;;;;;;6.72;3.70;;;7.70;99.90;;;;;;5067839;28;20308;-39
2022/11/28 08:38:39;;;;;;;6.85;3.80;;;7.70;99.90;;;;;;5060426;28;20040;-39
2022/11/28 08:41:08;;;;;;;7.47;4.78;;;7.70;99.90;;;;;;5065536;28;20048;-39
2022/11/28 08:43:35;;;;;;;7.95;3.85;;;7.70;99.90;;;;;;5060434;28;20518;-38
2022/11/28 08:46:02;;;;;;;8.02;4.22;;;7.70;99.90;;;;;;5061699;28;20566;-39
2022/11/28 08:48:29;;;;;;;8.13;4.47;;;7.80;99.90;;;;;;5060887;28;20040;-38
2022/11/28 08:50:55;;;;;;;7.88;4.43;;;7.70;99.90;;;;;;5063367;28;20787;-39
2022/11/28 08:53:21;;;;;;;6.93;4.22;;;7.80;99.90;;;;;;5059232;28;20043;-38
2022/11/28 08:55:47;;;;;;;6.53;4.13;;;7.80;99.90;;;;;;5063862;28;20093;-40
2022/11/28 08:58:13;;;;;;;14.63;4.65;;;7.80;99.90;;;;;;5060553;28;20084;-39
2022/11/28 09:00:41;;;;;;;6.95;3.88;;;7.80;99.90;;;;;;5067350;28;20044;-39
2022/11/28 09:03:08;;;;;;;7.43;3.90;;;7.80;99.90;;;;;;5062961;28;20043;-37
2022/11/28 09:05:34;;;;;;;7.72;4.18;;;7.80;99.90;;;;;;5058917;28;20033;-36
2022/11/28 09:08:00;;;;;;;7.22;4.40;;;7.80;99.90;;;;;;5058154;28;20505;-36
2022/11/28 09:10:25;;;;;;;7.90;4.07;;;7.90;99.90;;;;;;5060891;28;20087;-40
2022/11/28 09:12:51;;;;;;;7.25;3.92;;;7.90;99.90;;;;;;5063114;28;20487;-39
2022/11/28 09:15:17;;;;;;;6.45;3.72;;;7.90;99.90;;;;;;5061317;28;20033;-37
2022/11/28 09:17:44;;;;;;;7.50;4.07;;;7.90;99.90;;;;;;5062530;28;20044;-38
2022/11/28 09:20:11;;;;;;;7.50;4.05;;;7.90;99.90;;;;;;5059374;28;20152;-39
2022/11/28 09:22:37;;;;;;;6.50;3.60;;;8.00;99.90;;;;;;5055453;28;20045;-36
2022/11/28 09:25:03;;;;;;;7.57;3.63;;;8.00;99.90;;;;;;5067284;28;20096;-37
2022/11/28 09:27:28;;;;;;;7.93;4.45;;;8.00;99.90;;;;;;5059045;28;20040;-39
2022/11/28 09:29:54;;;;;;;8.43;3.85;;;8.00;99.90;;;;;;5061018;28;20115;-37
2022/11/28 09:32:20;;;;;;;6.53;3.75;;;8.00;99.90;;;;;;5058736;28;20534;-39
2022/11/28 09:34:45;;;;;;;8.48;4.40;;;8.00;99.90;;;;;;5062623;28;20102;-37
2022/11/28 09:37:11;;;;;;;6.82;4.22;;;8.00;99.90;;;;;;5054984;28;20041;-38
2022/11/28 09:39:37;;;;;;;7.07;4.38;;;8.00;99.90;;;;;;5062692;28;20036;-37
2022/11/28 09:42:12;;;;;;;7.65;3.95;;;8.00;99.90;;;;;;5065754;28;20051;-37
2022/11/28 09:44:49;;;;;;;9.43;4.43;;;8.10;99.90;;;;;;5065191;28;20485;-37
2022/11/28 09:47:23;;;;;;;6.50;3.47;;;8.10;99.90;;;;;;5062999;28;20044;-39
2022/11/28 09:50:00;;;;;;;6.47;3.58;;;8.10;99.90;;;;;;5058670;28;20429;-37
2022/11/28 09:52:47;;;;;;;7.70;3.67;;;8.10;99.90;;;;;;5057016;28;20043;-37
2022/11/28 09:55:53;;;;;;;7.65;3.50;;;8.10;99.90;;;;;;5069567;28;20036;-37
2022/11/28 09:58:44;;;;;;;7.47;3.75;;;8.10;99.90;;;;;;5005780;28;20044;-37
2022/11/28 10:01:14;;;;;;;7.55;3.58;;;8.10;99.90;;;;;;5050984;28;20092;-37
2022/11/28 10:04:09;;;;;;;6.78;3.90;;;8.10;99.90;;;;;;5066456;28;20123;-38
2022/11/28 10:06:43;;;;;;;6.85;3.70;;;8.10;99.90;;;;;;5076920;28;20090;-37
2022/11/28 10:09:46;;;;;;;6.97;3.42;;;8.10;99.90;;;;;;5058764;28;20096;-37
2022/11/28 10:12:24;;;;;;;7.32;3.38;;;8.20;99.90;;;;;;5057696;28;20044;-37
2022/11/28 10:15:17;;;;;;;6.47;3.40;;;8.20;99.90;;;;;;5066862;28;20475;-37
2022/11/28 10:18:08;;;;;;;5.22;2.67;;;8.20;99.90;;;;;;5055146;28;20064;-37
2022/11/28 10:20:38;;;;;;;6.05;3.17;;;8.10;99.90;;;;;;5056392;28;20098;-37
2022/11/28 10:23:20;;;;;;;5.53;2.92;;;8.20;99.90;;;;;;5061480;28;20485;-36
2022/11/28 10:25:54;;;;;;;6.90;3.37;;;8.20;99.90;;;;;;5059673;28;20763;-38
2022/11/28 10:28:36;;;;;;;5.95;3.28;;;8.20;99.90;;;;;;5055911;28;20297;-39
2022/11/28 10:31:41;;;;;;;5.38;3.05;;;8.20;99.90;;;;;;5065166;28;20140;-37
2022/11/28 10:34:26;;;;;;;5.47;2.70;;;8.20;99.90;;;;;;5061440;28;20613;-37
2022/11/28 10:37:01;;;;;;;7.00;3.10;;;8.20;99.90;;;;;;5064129;28;20506;-37
2022/11/28 10:39:27;;;;;;;4.43;2.45;;;8.30;99.90;;;;;;5060797;28;20076;-39
2022/11/28 10:42:11;;;;;;;5.70;2.90;;;8.30;99.90;;;;;;5063198;28;20071;-38
2022/11/28 10:45:05;;;;;;;5.10;2.85;;;8.20;99.90;;;;;;5063249;28;20036;-37
2022/11/28 10:47:48;;;;;;;5.22;3.08;;;8.30;99.90;;;;;;5057650;28;20053;-43
2022/11/28 10:50:30;;;;;;;5.38;3.35;;;8.30;99.90;;;;;;5078531;28;20048;-38
2022/11/28 10:53:05;;;;;;;7.00;3.97;;;8.30;99.90;;;;;;5062006;28;20478;-41
2022/11/28 10:56:09;;;;;;;5.50;3.10;;;8.30;99.90;;;;;;5065578;28;20096;-37
2022/11/28 10:58:42;;;;;;;5.53;2.88;;;8.30;99.90;;;;;;5058235;28;20045;-39
2022/11/28 11:01:09;;;;;;;7.38;3.70;;;8.30;99.90;;;;;;5066416;28;20053;-38
2022/11/28 11:03:35;;;;;;;6.93;4.05;;;8.30;99.90;;;;;;5054596;28;20089;-39
2022/11/28 11:06:01;;;;;;;5.65;3.33;;;8.30;99.90;;;;;;5065347;28;20118;-39
2022/11/28 11:08:32;;;;;;;5.90;3.40;;;8.30;99.90;;;;;;5064530;28;20044;-38
2022/11/28 11:11:06;;;;;;;7.00;3.60;;;8.30;99.90;;;;;;5060540;28;20044;-38
2022/11/28 11:13:34;;;;;;;9.13;5.18;;;8.40;99.90;;;;;;5069191;28;20037;-37
2022/11/28 11:16:03;;;;;;;6.45;3.53;;;8.40;99.90;;;;;;5061414;28;20059;-36
2022/11/28 11:18:35;;;;;;;6.63;3.65;;;8.40;99.90;;;;;;5063216;28;20040;-37
2022/11/28 11:21:22;;;;;;;8.27;4.20;;;8.40;99.90;;;;;;5064905;28;20532;-38
2022/11/28 11:24:00;;;;;;;6.93;3.85;;;8.40;99.90;;;;;;5065497;28;20070;-38
2022/11/28 11:26:32;;;;;;;6.57;3.90;;;8.50;99.90;;;;;;5060083;28;20044;-38
2022/11/28 11:28:58;;;;;;;7.90;4.13;;;8.50;99.90;;;;;;5065557;28;20693;-37
2022/11/28 11:31:29;;;;;;;6.68;3.38;;;8.50;99.90;;;;;;5057831;28;20512;-39
2022/11/28 11:34:18;;;;;;;7.45;3.80;;;8.50;99.90;;;;;;5061860;28;20067;-41
2022/11/28 11:36:44;;;;;;;6.55;3.50;;;8.50;99.90;;;;;;5057124;28;20056;-38
2022/11/28 11:39:09;;;;;;;7.85;3.50;;;8.50;99.90;;;;;;5057898;28;20435;-38
2022/11/28 11:41:38;;;;;;;8.57;3.63;;;8.50;99.90;;;;;;5053587;28;20056;-38
2022/11/28 11:44:12;;;;;;;6.60;3.30;;;8.50;99.90;;;;;;5053467;28;20490;-38
2022/11/28 11:46:52;;;;;;;5.90;3.35;;;8.50;99.90;;;;;;5059692;28;20076;-39
2022/11/28 11:49:36;;;;;;;6.25;3.63;;;8.50;99.90;;;;;;5062263;28;20068;-39
2022/11/28 11:52:13;;;;;;;6.63;3.95;;;8.60;99.90;;;;;;5056512;28;20482;-37
2022/11/28 11:55:09;;;;;;;6.47;3.55;;;8.60;99.90;;;;;;5055757;28;20036;-37
2022/11/28 11:57:38;;;;;;;6.97;4.25;;;8.60;99.90;;;;;;5051808;28;20526;-38
2022/11/28 12:00:18;;;;;;;7.93;4.40;;;8.70;99.90;;;;;;5057266;28;20029;-37
2022/11/28 12:02:59;;;;;;;6.97;4.03;;;8.60;99.90;;;;;;5063957;28;20167;-38
2022/11/28 12:05:30;;;;;;;6.82;3.67;;;8.70;99.90;;;;;;5064642;28;20047;-38
2022/11/28 12:08:02;;;;;;;9.07;4.07;;;8.60;99.90;;;;;;5055775;28;20041;-40
2022/11/28 12:10:36;;;;;;;13.52;5.45;;;8.60;99.90;;;;;;5055509;28;20041;-37
2022/11/28 12:13:03;;;;;;;8.45;4.63;;;8.60;99.90;;;;;;5059152;28;20041;-37
2022/11/28 12:15:47;;;;;;;9.10;4.20;;;8.70;99.90;;;;;;5056831;28;20033;-40
2022/11/28 12:18:34;;;;;;;7.55;4.47;;;8.70;99.90;;;;;;5060368;28;20044;-38
2022/11/28 12:21:18;;;;;;;7.15;4.55;;;8.70;99.90;;;;;;5054826;28;20124;-36
2022/11/28 12:24:09;;;;;;;9.32;4.40;;;8.70;99.90;;;;;;5054115;28;20131;-38
2022/11/28 12:26:51;;;;;;;8.40;4.25;;;8.70;99.90;;;;;;5053858;28;20102;-37
2022/11/28 12:29:41;;;;;;;8.45;4.57;;;8.70;99.90;;;;;;5056808;28;20048;-43
2022/11/28 12:32:40;;;;;;;6.88;4.03;;;8.70;99.90;;;;;;5054545;28;20033;-37
2022/11/28 12:35:21;;;;;;;7.68;3.97;;;8.70;99.90;;;;;;5056266;28;20051;-37
2022/11/28 12:38:13;;;;;;;7.13;3.75;;;8.70;99.90;;;;;;5074350;28;20040;-37
2022/11/28 12:41:09;;;;;;;7.45;3.90;;;8.70;99.90;;;;;;5058225;28;20041;-38
2022/11/28 12:43:41;;;;;;;8.43;4.40;;;8.70;99.90;;;;;;5056523;28;20513;-38
2022/11/28 12:46:25;;;;;;;11.00;4.93;;;8.70;99.90;;;;;;5057755;28;20055;-37
2022/11/28 12:48:50;;;;;;;8.90;4.25;;;8.70;99.90;;;;;;5064844;28;20410;-37
2022/11/28 12:52:06;;;;;;;10.80;5.72;;;8.70;99.90;;;;;;5055927;28;20043;-37
2022/11/28 12:54:50;;;;;;;7.45;3.92;;;8.70;99.90;;;;;;5041354;28;20591;-37
2022/11/28 12:57:32;;;;;;;12.38;5.10;;;8.70;99.90;;;;;;5051548;28;20041;-37
2022/11/28 13:00:08;;;;;;;8.35;4.90;;;8.70;99.90;;;;;;5055142;28;20040;-37
2022/11/28 13:02:45;;;;;;;8.05;4.43;;;8.70;99.90;;;;;;5054816;28;20541;-37
2022/11/28 13:05:38;;;;;;;8.43;4.50;;;8.80;99.90;;;;;;5056967;28;20044;-37
2022/11/28 13:08:46;;;;;;;9.82;5.43;;;8.70;99.90;;;;;;5054301;28;20045;-37
2022/11/28 13:11:56;;;;;;;9.05;4.68;;;8.70;99.90;;;;;;5055662;28;20040;-37
2022/11/28 13:14:41;;;;;;;9.43;4.68;;;8.70;99.90;;;;;;5021495;28;20447;-37
2022/11/28 13:17:30;;;;;;;9.68;4.70;;;8.70;99.90;;;;;;5019843;28;20124;-37
2022/11/28 13:20:22;;;;;;;10.05;4.68;;;8.70;99.90;;;;;;5047841;28;20059;-36
2022/11/28 13:23:06;;;;;;;9.55;4.80;;;8.80;99.90;;;;;;5053009;28;20052;-37
2022/11/28 13:26:03;;;;;;;10.57;4.05;;;8.80;99.90;;;;;;5060693;28;20039;-37